Itapagipe, Brazil
Current Conditions -  °F | °C
As of 7:00 PM on Sunday 23 Nov 2014 (Local Time) from SBSR Reporting Station
Broken Clouds Broken Clouds  
Wind Chill: 84°   Ceiling: 4500
Heat Index: 86°   Visibility: 6mi
Dew Point: 64°   Wind: 5mph
Humidity: 51%   Direction: 120°ESE
Pressure: 29.88"   Gusts: NA
Location:  19.91°S, 49.38°W
Report Text: SBSR 232100Z 12004KT 9999 BKN045 BKN080 29/18 Q1012
Loading
Personal Weather Stations






























Interactive Weather Map New forecast layout! Learn more

10-Day Weather Forecast

Advertisements
Track Severe Weather on mobile